sensor_id;sensor_type;location;lat;lon;timestamp;pressure;altitude;pressure_sealevel;temperature;humidity
53340;BME280;46212;50.258;19.062;2023-02-18T00:00:18;98136.03;;;9.00;94.36
53340;BME280;46212;50.258;19.062;2023-02-18T00:02:44;98141.34;;;8.94;95.04
53340;BME280;46212;50.258;19.062;2023-02-18T00:05:11;98145.94;;;8.88;94.77
53340;BME280;46212;50.258;19.062;2023-02-18T00:07:38;98150.09;;;8.93;94.97
53340;BME280;46212;50.258;19.062;2023-02-18T00:10:06;98137.22;;;8.90;94.24
53340;BME280;46212;50.258;19.062;2023-02-18T00:12:32;98146.13;;;8.94;94.45
53340;BME280;46212;50.258;19.062;2023-02-18T00:14:58;98137.69;;;8.97;94.11
53340;BME280;46212;50.258;19.062;2023-02-18T00:17:23;98146.72;;;9.07;92.93
53340;BME280;46212;50.258;19.062;2023-02-18T00:19:49;98153.34;;;9.19;92.49
53340;BME280;46212;50.258;19.062;2023-02-18T00:22:14;98155.47;;;9.05;92.68
53340;BME280;46212;50.258;19.062;2023-02-18T00:24:40;98162.38;;;9.19;92.41
53340;BME280;46212;50.258;19.062;2023-02-18T00:27:05;98170.31;;;9.08;92.75
53340;BME280;46212;50.258;19.062;2023-02-18T00:29:31;98189.16;;;9.19;93.08
53340;BME280;46212;50.258;19.062;2023-02-18T00:31:56;98194.03;;;9.05;93.99
53340;BME280;46212;50.258;19.062;2023-02-18T00:34:22;98195.72;;;9.03;94.24
53340;BME280;46212;50.258;19.062;2023-02-18T00:36:47;98213.44;;;9.02;94.22
53340;BME280;46212;50.258;19.062;2023-02-18T00:39:13;98228.75;;;8.94;91.63
53340;BME280;46212;50.258;19.062;2023-02-18T00:41:38;98260.69;;;8.91;90.11
53340;BME280;46212;50.258;19.062;2023-02-18T00:44:04;98246.72;;;8.77;89.08
53340;BME280;46212;50.258;19.062;2023-02-18T00:46:30;98242.25;;;8.70;86.51
53340;BME280;46212;50.258;19.062;2023-02-18T00:48:55;98251.44;;;8.76;86.31
53340;BME280;46212;50.258;19.062;2023-02-18T00:51:22;98236.31;;;8.72;85.86
53340;BME280;46212;50.258;19.062;2023-02-18T00:53:48;98258.81;;;8.79;84.75
53340;BME280;46212;50.258;19.062;2023-02-18T00:56:14;98243.63;;;8.66;84.40
53340;BME280;46212;50.258;19.062;2023-02-18T00:58:39;98281.72;;;8.76;84.16
53340;BME280;46212;50.258;19.062;2023-02-18T01:01:06;98267.19;;;8.76;84.10
53340;BME280;46212;50.258;19.062;2023-02-18T01:03:31;98260.53;;;8.55;85.06
53340;BME280;46212;50.258;19.062;2023-02-18T01:05:57;98267.56;;;8.56;84.82
53340;BME280;46212;50.258;19.062;2023-02-18T01:08:22;98270.88;;;8.51;85.09
53340;BME280;46212;50.258;19.062;2023-02-18T01:10:52;98258.66;;;8.52;85.28
53340;BME280;46212;50.258;19.062;2023-02-18T01:13:18;98263.78;;;8.41;85.56
53340;BME280;46212;50.258;19.062;2023-02-18T01:15:43;98279.09;;;8.42;85.94
53340;BME280;46212;50.258;19.062;2023-02-18T01:18:11;98275.94;;;8.52;85.43
53340;BME280;46212;50.258;19.062;2023-02-18T01:20:38;98286.91;;;8.43;85.76
53340;BME280;46212;50.258;19.062;2023-02-18T01:23:04;98279.31;;;8.57;84.79
53340;BME280;46212;50.258;19.062;2023-02-18T01:25:30;98269.81;;;8.48;83.89
53340;BME280;46212;50.258;19.062;2023-02-18T01:27:56;98251.41;;;8.36;84.23
53340;BME280;46212;50.258;19.062;2023-02-18T01:30:21;98264.44;;;8.45;83.71
53340;BME280;46212;50.258;19.062;2023-02-18T01:32:47;98277.22;;;8.61;82.53
53340;BME280;46212;50.258;19.062;2023-02-18T01:35:17;98261.97;;;8.47;81.88
53340;BME280;46212;50.258;19.062;2023-02-18T01:37:44;98268.97;;;8.39;82.44
53340;BME280;46212;50.258;19.062;2023-02-18T01:40:12;98286.00;;;8.46;82.48
53340;BME280;46212;50.258;19.062;2023-02-18T01:42:38;98295.47;;;8.45;80.75
53340;BME280;46212;50.258;19.062;2023-02-18T01:48:14;98275.84;;;8.22;80.10
53340;BME280;46212;50.258;19.062;2023-02-18T01:50:51;98296.81;;;8.41;77.30
53340;BME280;46212;50.258;19.062;2023-02-18T01:53:25;98311.03;;;8.39;75.10
53340;BME280;46212;50.258;19.062;2023-02-18T01:55:51;98315.16;;;8.44;74.19
53340;BME280;46212;50.258;19.062;2023-02-18T01:58:16;98291.13;;;8.35;74.05
53340;BME280;46212;50.258;19.062;2023-02-18T02:00:42;98302.25;;;8.53;73.77
53340;BME280;46212;50.258;19.062;2023-02-18T02:03:08;98284.94;;;8.53;73.89
53340;BME280;46212;50.258;19.062;2023-02-18T02:05:33;98284.78;;;8.47;72.45
53340;BME280;46212;50.258;19.062;2023-02-18T02:08:00;98300.56;;;8.34;69.58
53340;BME280;46212;50.258;19.062;2023-02-18T02:11:01;98291.88;;;8.36;65.80
53340;BME280;46212;50.258;19.062;2023-02-18T02:13:53;98290.72;;;8.24;67.17
53340;BME280;46212;50.258;19.062;2023-02-18T02:19:58;98287.97;;;8.24;65.50
53340;BME280;46212;50.258;19.062;2023-02-18T02:39:28;98300.47;;;8.03;65.01
53340;BME280;46212;50.258;19.062;2023-02-18T02:44:56;98307.44;;;7.95;67.79
53340;BME280;46212;50.258;19.062;2023-02-18T02:47:31;98308.56;;;7.85;69.36
53340;BME280;46212;50.258;19.062;2023-02-18T02:50:12;98306.47;;;7.89;71.25
53340;BME280;46212;50.258;19.062;2023-02-18T02:52:47;98309.31;;;7.64;72.92
53340;BME280;46212;50.258;19.062;2023-02-18T02:55:14;98283.91;;;7.60;74.02
53340;BME280;46212;50.258;19.062;2023-02-18T02:57:49;98311.78;;;7.71;75.13
53340;BME280;46212;50.258;19.062;2023-02-18T03:00:18;98316.84;;;7.73;75.74
53340;BME280;46212;50.258;19.062;2023-02-18T03:11:06;98321.16;;;7.61;78.00
53340;BME280;46212;50.258;19.062;2023-02-18T03:13:55;98343.88;;;7.74;75.62
53340;BME280;46212;50.258;19.062;2023-02-18T03:16:27;98349.84;;;7.73;73.00
53340;BME280;46212;50.258;19.062;2023-02-18T03:18:59;98350.94;;;7.63;72.51
53340;BME280;46212;50.258;19.062;2023-02-18T03:24:01;98351.19;;;7.43;71.46
53340;BME280;46212;50.258;19.062;2023-02-18T03:26:29;98362.19;;;7.43;70.06
53340;BME280;46212;50.258;19.062;2023-02-18T03:28:59;98360.50;;;7.58;69.19
53340;BME280;46212;50.258;19.062;2023-02-18T03:31:27;98366.91;;;7.42;70.40
53340;BME280;46212;50.258;19.062;2023-02-18T03:34:07;98357.34;;;7.34;71.72
53340;BME280;46212;50.258;19.062;2023-02-18T03:36:34;98367.13;;;7.35;74.18
53340;BME280;46212;50.258;19.062;2023-02-18T03:39:06;98342.84;;;6.96;76.47
53340;BME280;46212;50.258;19.062;2023-02-18T03:41:34;98355.78;;;7.08;77.54
53340;BME280;46212;50.258;19.062;2023-02-18T03:44:03;98347.13;;;6.97;78.49
53340;BME280;46212;50.258;19.062;2023-02-18T03:46:29;98347.22;;;6.81;80.58
53340;BME280;46212;50.258;19.062;2023-02-18T03:48:56;98361.16;;;6.86;82.06
53340;BME280;46212;50.258;19.062;2023-02-18T03:51:21;98369.59;;;6.92;82.99
53340;BME280;46212;50.258;19.062;2023-02-18T03:53:47;98351.03;;;6.83;84.15
53340;BME280;46212;50.258;19.062;2023-02-18T03:56:13;98371.72;;;7.01;82.89
53340;BME280;46212;50.258;19.062;2023-02-18T03:58:38;98366.78;;;7.08;82.03
53340;BME280;46212;50.258;19.062;2023-02-18T04:01:05;98367.56;;;7.09;81.17
53340;BME280;46212;50.258;19.062;2023-02-18T04:03:30;98365.56;;;6.97;81.55
53340;BME280;46212;50.258;19.062;2023-02-18T04:05:56;98371.50;;;7.08;81.48
53340;BME280;46212;50.258;19.062;2023-02-18T04:08:21;98375.97;;;6.89;82.48
53340;BME280;46212;50.258;19.062;2023-02-18T04:10:47;98380.28;;;6.90;83.36
53340;BME280;46212;50.258;19.062;2023-02-18T04:13:13;98375.97;;;6.89;83.41
53340;BME280;46212;50.258;19.062;2023-02-18T04:15:38;98361.91;;;6.74;80.83
53340;BME280;46212;50.258;19.062;2023-02-18T04:18:03;98371.22;;;6.77;78.72
53340;BME280;46212;50.258;19.062;2023-02-18T04:20:30;98382.09;;;6.68;74.07
53340;BME280;46212;50.258;19.062;2023-02-18T04:22:55;98383.31;;;6.79;71.77
53340;BME280;46212;50.258;19.062;2023-02-18T04:25:21;98373.31;;;6.85;67.21
53340;BME280;46212;50.258;19.062;2023-02-18T04:27:46;98383.13;;;6.86;63.32
53340;BME280;46212;50.258;19.062;2023-02-18T04:30:12;98399.94;;;7.01;59.80
53340;BME280;46212;50.258;19.062;2023-02-18T04:32:38;98387.75;;;7.02;56.99
53340;BME280;46212;50.258;19.062;2023-02-18T04:35:04;98379.19;;;7.00;54.72
53340;BME280;46212;50.258;19.062;2023-02-18T04:37:29;98387.97;;;7.08;54.37
53340;BME280;46212;50.258;19.062;2023-02-18T04:39:55;98388.84;;;7.05;49.94
53340;BME280;46212;50.258;19.062;2023-02-18T04:42:20;98396.47;;;7.13;48.42
53340;BME280;46212;50.258;19.062;2023-02-18T04:44:46;98392.28;;;7.21;49.23
53340;BME280;46212;50.258;19.062;2023-02-18T04:47:11;98396.56;;;7.10;49.32
53340;BME280;46212;50.258;19.062;2023-02-18T04:49:36;98401.06;;;7.04;49.63
53340;BME280;46212;50.258;19.062;2023-02-18T04:52:02;98392.63;;;6.82;50.67
53340;BME280;46212;50.258;19.062;2023-02-18T04:54:27;98425.38;;;6.89;49.84
53340;BME280;46212;50.258;19.062;2023-02-18T04:56:53;98407.00;;;6.73;50.26
53340;BME280;46212;50.258;19.062;2023-02-18T04:59:18;98419.13;;;6.88;50.17
53340;BME280;46212;50.258;19.062;2023-02-18T05:01:44;98423.28;;;6.80;50.77
53340;BME280;46212;50.258;19.062;2023-02-18T05:04:09;98407.56;;;6.68;50.81
53340;BME280;46212;50.258;19.062;2023-02-18T05:06:34;98422.69;;;6.73;52.07
53340;BME280;46212;50.258;19.062;2023-02-18T05:09:00;98425.84;;;6.59;52.89
53340;BME280;46212;50.258;19.062;2023-02-18T05:11:25;98409.53;;;6.39;53.62
53340;BME280;46212;50.258;19.062;2023-02-18T05:13:51;98426.81;;;6.52;53.12
53340;BME280;46212;50.258;19.062;2023-02-18T05:16:16;98414.94;;;6.26;54.12
53340;BME280;46212;50.258;19.062;2023-02-18T05:18:42;98418.22;;;6.50;53.69
53340;BME280;46212;50.258;19.062;2023-02-18T05:21:07;98421.09;;;6.47;53.03
53340;BME280;46212;50.258;19.062;2023-02-18T05:23:32;98394.31;;;6.51;52.81
53340;BME280;46212;50.258;19.062;2023-02-18T05:25:58;98424.75;;;6.56;51.55
53340;BME280;46212;50.258;19.062;2023-02-18T05:28:24;98413.31;;;6.58;51.68
53340;BME280;46212;50.258;19.062;2023-02-18T05:30:49;98402.56;;;6.34;51.87
53340;BME280;46212;50.258;19.062;2023-02-18T05:33:15;98417.13;;;6.48;50.97
53340;BME280;46212;50.258;19.062;2023-02-18T05:35:40;98405.22;;;6.38;51.53
53340;BME280;46212;50.258;19.062;2023-02-18T05:38:05;98410.06;;;6.34;51.78
53340;BME280;46212;50.258;19.062;2023-02-18T05:40:31;98408.94;;;6.31;51.91
53340;BME280;46212;50.258;19.062;2023-02-18T05:42:56;98414.75;;;6.33;52.11
53340;BME280;46212;50.258;19.062;2023-02-18T05:45:22;98429.94;;;6.22;52.88
53340;BME280;46212;50.258;19.062;2023-02-18T05:47:47;98413.69;;;6.15;53.28
53340;BME280;46212;50.258;19.062;2023-02-18T05:50:13;98418.38;;;6.30;53.39
53340;BME280;46212;50.258;19.062;2023-02-18T05:52:38;98414.00;;;6.33;53.52
53340;BME280;46212;50.258;19.062;2023-02-18T05:55:04;98404.03;;;6.39;53.39
53340;BME280;46212;50.258;19.062;2023-02-18T05:57:30;98419.22;;;6.44;52.82
53340;BME280;46212;50.258;19.062;2023-02-18T05:59:55;98422.47;;;6.38;52.90
53340;BME280;46212;50.258;19.062;2023-02-18T06:02:21;98416.00;;;6.45;52.08
53340;BME280;46212;50.258;19.062;2023-02-18T06:04:46;98413.59;;;6.47;51.44
53340;BME280;46212;50.258;19.062;2023-02-18T06:07:12;98430.88;;;6.60;50.70
53340;BME280;46212;50.258;19.062;2023-02-18T06:09:37;98416.06;;;6.58;51.47
53340;BME280;46212;50.258;19.062;2023-02-18T06:12:03;98412.34;;;6.64;51.21
53340;BME280;46212;50.258;19.062;2023-02-18T06:14:28;98426.94;;;6.61;51.56
53340;BME280;46212;50.258;19.062;2023-02-18T06:16:54;98431.03;;;6.69;51.58
53340;BME280;46212;50.258;19.062;2023-02-18T06:19:19;98434.44;;;6.73;51.55
53340;BME280;46212;50.258;19.062;2023-02-18T06:21:45;98418.72;;;6.61;50.99
53340;BME280;46212;50.258;19.062;2023-02-18T06:24:10;98435.03;;;6.81;50.19
53340;BME280;46212;50.258;19.062;2023-02-18T06:26:36;98437.00;;;6.80;50.49
53340;BME280;46212;50.258;19.062;2023-02-18T06:29:01;98438.50;;;6.98;50.47
53340;BME280;46212;50.258;19.062;2023-02-18T06:31:27;98442.75;;;6.99;49.97
53340;BME280;46212;50.258;19.062;2023-02-18T06:33:53;98446.28;;;6.99;49.88
53340;BME280;46212;50.258;19.062;2023-02-18T06:36:18;98426.44;;;6.79;49.53
53340;BME280;46212;50.258;19.062;2023-02-18T06:38:44;98450.69;;;7.09;48.71
53340;BME280;46212;50.258;19.062;2023-02-18T06:41:11;98441.00;;;7.05;48.64
53340;BME280;46212;50.258;19.062;2023-02-18T06:43:37;98440.81;;;7.12;48.51
53340;BME280;46212;50.258;19.062;2023-02-18T06:46:03;98419.75;;;7.21;47.84
53340;BME280;46212;50.258;19.062;2023-02-18T06:48:28;98446.03;;;7.35;47.32
53340;BME280;46212;50.258;19.062;2023-02-18T06:50:55;98443.25;;;7.22;47.92
53340;BME280;46212;50.258;19.062;2023-02-18T06:53:20;98438.88;;;7.37;47.34
53340;BME280;46212;50.258;19.062;2023-02-18T06:55:46;98455.94;;;7.45;46.87
53340;BME280;46212;50.258;19.062;2023-02-18T06:58:12;98445.16;;;7.51;48.11
53340;BME280;46212;50.258;19.062;2023-02-18T07:00:38;98452.16;;;7.39;47.25
53340;BME280;46212;50.258;19.062;2023-02-18T07:03:04;98462.03;;;7.24;47.23
53340;BME280;46212;50.258;19.062;2023-02-18T07:05:30;98459.22;;;7.40;47.64
53340;BME280;46212;50.258;19.062;2023-02-18T07:07:55;98442.19;;;7.32;47.24
53340;BME280;46212;50.258;19.062;2023-02-18T07:10:21;98454.91;;;7.39;47.43
53340;BME280;46212;50.258;19.062;2023-02-18T07:12:46;98452.53;;;7.54;47.17
53340;BME280;46212;50.258;19.062;2023-02-18T07:15:12;98451.19;;;7.45;46.75
53340;BME280;46212;50.258;19.062;2023-02-18T07:17:38;98468.25;;;7.53;46.80
53340;BME280;46212;50.258;19.062;2023-02-18T07:20:04;98468.69;;;7.64;46.07
53340;BME280;46212;50.258;19.062;2023-02-18T07:22:30;98461.44;;;7.83;45.80
53340;BME280;46212;50.258;19.062;2023-02-18T07:24:55;98443.28;;;7.60;46.12
53340;BME280;46212;50.258;19.062;2023-02-18T07:27:21;98462.53;;;7.73;46.17
53340;BME280;46212;50.258;19.062;2023-02-18T07:29:47;98451.75;;;7.53;45.88
53340;BME280;46212;50.258;19.062;2023-02-18T07:32:14;98464.41;;;7.88;45.41
53340;BME280;46212;50.258;19.062;2023-02-18T07:34:41;98456.59;;;7.62;45.40
53340;BME280;46212;50.258;19.062;2023-02-18T07:37:07;98455.38;;;7.63;45.44
53340;BME280;46212;50.258;19.062;2023-02-18T07:39:42;98460.22;;;7.59;45.41
53340;BME280;46212;50.258;19.062;2023-02-18T07:42:09;98465.59;;;7.75;44.66
53340;BME280;46212;50.258;19.062;2023-02-18T07:44:35;98469.34;;;7.81;44.53
53340;BME280;46212;50.258;19.062;2023-02-18T07:47:02;98470.22;;;7.65;44.21
53340;BME280;46212;50.258;19.062;2023-02-18T07:49:28;98469.22;;;7.72;44.44
53340;BME280;46212;50.258;19.062;2023-02-18T07:51:53;98469.44;;;7.90;44.24
53340;BME280;46212;50.258;19.062;2023-02-18T07:54:19;98459.69;;;7.89;44.10
53340;BME280;46212;50.258;19.062;2023-02-18T07:56:45;98467.91;;;7.89;44.86
53340;BME280;46212;50.258;19.062;2023-02-18T07:59:11;98469.03;;;7.66;45.33
53340;BME280;46212;50.258;19.062;2023-02-18T08:01:38;98478.03;;;7.92;45.11
53340;BME280;46212;50.258;19.062;2023-02-18T08:04:04;98485.72;;;7.84;45.55
53340;BME280;46212;50.258;19.062;2023-02-18T08:06:36;98459.88;;;7.82;45.83
53340;BME280;46212;50.258;19.062;2023-02-18T08:09:02;98482.19;;;7.96;45.31
53340;BME280;46212;50.258;19.062;2023-02-18T08:11:28;98489.25;;;7.97;44.91
53340;BME280;46212;50.258;19.062;2023-02-18T08:13:53;98492.41;;;7.96;44.94
53340;BME280;46212;50.258;19.062;2023-02-18T08:16:20;98480.00;;;8.04;45.11
53340;BME280;46212;50.258;19.062;2023-02-18T08:18:46;98466.91;;;8.08;44.17
53340;BME280;46212;50.258;19.062;2023-02-18T08:21:13;98472.19;;;7.77;44.59
53340;BME280;46212;50.258;19.062;2023-02-18T08:23:39;98476.28;;;7.85;44.93
53340;BME280;46212;50.258;19.062;2023-02-18T08:26:05;98465.94;;;8.02;44.04
53340;BME280;46212;50.258;19.062;2023-02-18T08:28:30;98466.91;;;8.08;44.23
53340;BME280;46212;50.258;19.062;2023-02-18T08:30:55;98464.59;;;7.94;44.86
53340;BME280;46212;50.258;19.062;2023-02-18T08:33:22;98474.84;;;7.93;44.91
53340;BME280;46212;50.258;19.062;2023-02-18T08:35:49;98459.00;;;7.97;44.72
53340;BME280;46212;50.258;19.062;2023-02-18T08:38:15;98464.50;;;7.97;44.81
53340;BME280;46212;50.258;19.062;2023-02-18T08:40:41;98462.31;;;7.92;45.34
53340;BME280;46212;50.258;19.062;2023-02-18T08:43:06;98477.25;;;7.91;45.49
53340;BME280;46212;50.258;19.062;2023-02-18T08:45:32;98477.81;;;8.12;44.83
53340;BME280;46212;50.258;19.062;2023-02-18T08:47:58;98485.16;;;8.27;45.20
53340;BME280;46212;50.258;19.062;2023-02-18T08:50:23;98496.28;;;8.24;45.03
53340;BME280;46212;50.258;19.062;2023-02-18T08:52:53;98479.78;;;8.11;45.31
53340;BME280;46212;50.258;19.062;2023-02-18T08:55:19;98488.03;;;8.36;45.50
53340;BME280;46212;50.258;19.062;2023-02-18T08:57:46;98469.53;;;8.24;45.45
53340;BME280;46212;50.258;19.062;2023-02-18T09:00:15;98485.16;;;8.27;46.59
53340;BME280;46212;50.258;19.062;2023-02-18T09:02:41;98487.66;;;8.47;46.79
53340;BME280;46212;50.258;19.062;2023-02-18T09:05:07;98483.97;;;8.63;47.09
53340;BME280;46212;50.258;19.062;2023-02-18T09:07:34;98483.69;;;8.48;47.89
53340;BME280;46212;50.258;19.062;2023-02-18T09:09:59;98492.63;;;8.39;47.95
53340;BME280;46212;50.258;19.062;2023-02-18T09:12:25;98476.38;;;8.67;48.01
53340;BME280;46212;50.258;19.062;2023-02-18T09:14:50;98457.19;;;8.41;48.64
53340;BME280;46212;50.258;19.062;2023-02-18T09:17:16;98455.91;;;8.21;49.40
53340;BME280;46212;50.258;19.062;2023-02-18T09:19:41;98479.66;;;8.40;50.17
53340;BME280;46212;50.258;19.062;2023-02-18T09:22:06;98451.88;;;8.47;50.22
53340;BME280;46212;50.258;19.062;2023-02-18T09:24:36;98469.03;;;8.51;50.85
53340;BME280;46212;50.258;19.062;2023-02-18T09:27:02;98451.56;;;8.45;51.01
53340;BME280;46212;50.258;19.062;2023-02-18T09:29:28;98477.22;;;8.42;52.56
53340;BME280;46212;50.258;19.062;2023-02-18T09:31:53;98468.69;;;8.62;52.19
53340;BME280;46212;50.258;19.062;2023-02-18T09:34:18;98454.72;;;8.56;52.38
53340;BME280;46212;50.258;19.062;2023-02-18T09:36:44;98469.06;;;8.73;52.61
53340;BME280;46212;50.258;19.062;2023-02-18T09:39:09;98469.66;;;8.89;52.41
53340;BME280;46212;50.258;19.062;2023-02-18T09:41:51;98466.47;;;8.57;53.66
53340;BME280;46212;50.258;19.062;2023-02-18T09:44:27;98459.25;;;8.84;53.26
53340;BME280;46212;50.258;19.062;2023-02-18T09:47:05;98446.56;;;8.87;53.44
53340;BME280;46212;50.258;19.062;2023-02-18T09:49:40;98444.22;;;8.64;54.13
53340;BME280;46212;50.258;19.062;2023-02-18T09:52:21;98429.84;;;8.81;53.34
53340;BME280;46212;50.258;19.062;2023-02-18T09:54:51;98430.41;;;8.76;53.43
53340;BME280;46212;50.258;19.062;2023-02-18T09:57:23;98430.09;;;8.74;53.17
53340;BME280;46212;50.258;19.062;2023-02-18T10:00:03;98440.75;;;8.72;51.70
53340;BME280;46212;50.258;19.062;2023-02-18T10:02:30;98455.78;;;8.93;51.40
53340;BME280;46212;50.258;19.062;2023-02-18T10:04:56;98478.66;;;8.46;51.82
53340;BME280;46212;50.258;19.062;2023-02-18T10:07:26;98459.50;;;8.43;52.08
53340;BME280;46212;50.258;19.062;2023-02-18T10:09:53;98435.22;;;8.03;51.63
53340;BME280;46212;50.258;19.062;2023-02-18T10:12:22;98452.28;;;8.58;51.49
53340;BME280;46212;50.258;19.062;2023-02-18T10:14:50;98451.97;;;8.56;53.23
53340;BME280;46212;50.258;19.062;2023-02-18T10:17:17;98444.59;;;8.53;55.75
53340;BME280;46212;50.258;19.062;2023-02-18T10:19:45;98449.03;;;8.38;56.02
53340;BME280;46212;50.258;19.062;2023-02-18T10:22:13;98445.97;;;8.36;57.19
53340;BME280;46212;50.258;19.062;2023-02-18T10:24:43;98450.44;;;7.83;60.15
53340;BME280;46212;50.258;19.062;2023-02-18T10:27:17;98457.03;;;7.85;61.88
53340;BME280;46212;50.258;19.062;2023-02-18T10:29:43;98454.16;;;8.01;60.82
53340;BME280;46212;50.258;19.062;2023-02-18T10:35:16;98445.16;;;7.76;62.49
53340;BME280;46212;50.258;19.062;2023-02-18T10:40:52;98453.19;;;7.83;62.16
53340;BME280;46212;50.258;19.062;2023-02-18T10:43:56;98431.28;;;8.05;62.01
53340;BME280;46212;50.258;19.062;2023-02-18T10:52:04;98445.16;;;7.88;63.49
53340;BME280;46212;50.258;19.062;2023-02-18T10:54:57;98432.44;;;8.16;62.67
53340;BME280;46212;50.258;19.062;2023-02-18T10:57:24;98435.59;;;8.52;61.80
53340;BME280;46212;50.258;19.062;2023-02-18T11:00:14;98431.41;;;7.76;64.41
53340;BME280;46212;50.258;19.062;2023-02-18T11:02:40;98455.28;;;7.66;66.09
53340;BME280;46212;50.258;19.062;2023-02-18T11:05:38;98451.44;;;7.51;68.20
53340;BME280;46212;50.258;19.062;2023-02-18T11:08:06;98419.88;;;7.43;68.70
53340;BME280;46212;50.258;19.062;2023-02-18T11:10:34;98424.03;;;7.22;69.18
53340;BME280;46212;50.258;19.062;2023-02-18T11:13:06;98379.16;;;6.75;70.67
53340;BME280;46212;50.258;19.062;2023-02-18T11:15:32;98412.56;;;6.99;70.88
53340;BME280;46212;50.258;19.062;2023-02-18T11:18:28;98406.22;;;7.14;70.65
53340;BME280;46212;50.258;19.062;2023-02-18T11:21:03;98406.63;;;6.87;71.46
53340;BME280;46212;50.258;19.062;2023-02-18T11:23:31;98396.44;;;7.01;72.41
53340;BME280;46212;50.258;19.062;2023-02-18T11:26:03;98390.72;;;7.08;72.27
53340;BME280;46212;50.258;19.062;2023-02-18T11:28:35;98395.34;;;7.23;71.01
53340;BME280;46212;50.258;19.062;2023-02-18T11:31:05;98384.50;;;7.20;71.57
53340;BME280;46212;50.258;19.062;2023-02-18T11:33:42;98375.09;;;6.92;71.97
53340;BME280;46212;50.258;19.062;2023-02-18T11:36:23;98376.66;;;6.93;73.50
53340;BME280;46212;50.258;19.062;2023-02-18T11:41:21;98381.03;;;6.90;73.62
53340;BME280;46212;50.258;19.062;2023-02-18T11:43:54;98367.75;;;6.89;73.85
53340;BME280;46212;50.258;19.062;2023-02-18T11:46:22;98344.50;;;7.06;73.17
53340;BME280;46212;50.258;19.062;2023-02-18T11:48:48;98351.00;;;6.58;75.24
53340;BME280;46212;50.258;19.062;2023-02-18T11:51:27;98352.13;;;6.73;75.88
53340;BME280;46212;50.258;19.062;2023-02-18T11:54:05;98354.13;;;6.85;76.07
53340;BME280;46212;50.258;19.062;2023-02-18T11:56:54;98330.38;;;6.79;77.55
53340;BME280;46212;50.258;19.062;2023-02-18T11:59:21;98328.69;;;6.98;76.02
53340;BME280;46212;50.258;19.062;2023-02-18T12:01:52;98348.41;;;6.92;76.87
53340;BME280;46212;50.258;19.062;2023-02-18T12:04:26;98331.38;;;6.85;78.02
53340;BME280;46212;50.258;19.062;2023-02-18T12:09:37;98311.97;;;6.38;80.90
53340;BME280;46212;50.258;19.062;2023-02-18T12:12:18;98309.59;;;6.40;81.57
53340;BME280;46212;50.258;19.062;2023-02-18T12:14:44;98310.97;;;6.32;82.85
53340;BME280;46212;50.258;19.062;2023-02-18T12:20:48;98298.53;;;6.56;83.73
53340;BME280;46212;50.258;19.062;2023-02-18T12:23:14;98295.25;;;6.74;84.67
53340;BME280;46212;50.258;19.062;2023-02-18T12:29:35;98290.09;;;6.88;84.62
53340;BME280;46212;50.258;19.062;2023-02-18T12:34:52;98268.16;;;6.88;85.65
53340;BME280;46212;50.258;19.062;2023-02-18T13:01:13;98177.91;;;6.15;90.37
53340;BME280;46212;50.258;19.062;2023-02-18T13:10:04;98173.22;;;6.53;91.29
53340;BME280;46212;50.258;19.062;2023-02-18T13:15:53;98150.81;;;6.17;91.55
53340;BME280;46212;50.258;19.062;2023-02-18T13:18:28;98149.13;;;5.94;91.33
53340;BME280;46212;50.258;19.062;2023-02-18T13:20:58;98143.00;;;6.15;91.57
53340;BME280;46212;50.258;19.062;2023-02-18T13:23:31;98130.06;;;6.16;92.19
53340;BME280;46212;50.258;19.062;2023-02-18T13:26:00;98123.28;;;6.20;91.82
53340;BME280;46212;50.258;19.062;2023-02-18T13:28:39;98126.34;;;6.35;91.50
53340;BME280;46212;50.258;19.062;2023-02-18T13:31:27;98110.34;;;6.21;92.89
53340;BME280;46212;50.258;19.062;2023-02-18T13:33:59;98112.53;;;6.13;93.20
53340;BME280;46212;50.258;19.062;2023-02-18T13:36:35;98086.66;;;6.02;93.38
53340;BME280;46212;50.258;19.062;2023-02-18T13:39:06;98101.16;;;6.27;93.30
53340;BME280;46212;50.258;19.062;2023-02-18T13:41:41;98085.13;;;6.01;93.43
53340;BME280;46212;50.258;19.062;2023-02-18T13:47:07;98077.09;;;6.06;94.32
53340;BME280;46212;50.258;19.062;2023-02-18T13:49:37;98069.88;;;6.00;94.31
53340;BME280;46212;50.258;19.062;2023-02-18T13:52:04;98064.00;;;5.72;94.88
53340;BME280;46212;50.258;19.062;2023-02-18T13:54:41;98062.16;;;5.69;95.66
53340;BME280;46212;50.258;19.062;2023-02-18T13:57:21;98047.63;;;5.98;95.81
53340;BME280;46212;50.258;19.062;2023-02-18T13:59:56;98042.13;;;5.98;95.49
53340;BME280;46212;50.258;19.062;2023-02-18T14:04:50;98032.25;;;6.00;95.94
53340;BME280;46212;50.258;19.062;2023-02-18T14:07:22;98018.47;;;5.91;95.74
53340;BME280;46212;50.258;19.062;2023-02-18T14:09:50;98017.00;;;5.74;95.64
53340;BME280;46212;50.258;19.062;2023-02-18T14:14:51;98014.31;;;5.86;96.19
53340;BME280;46212;50.258;19.062;2023-02-18T14:19:42;97999.03;;;5.73;96.95
53340;BME280;46212;50.258;19.062;2023-02-18T14:22:27;98007.69;;;6.09;95.06
53340;BME280;46212;50.258;19.062;2023-02-18T14:25:13;97978.22;;;5.75;95.72
53340;BME280;46212;50.258;19.062;2023-02-18T14:27:41;97989.16;;;5.75;96.45
53340;BME280;46212;50.258;19.062;2023-02-18T14:30:25;97987.97;;;6.14;96.13
53340;BME280;46212;50.258;19.062;2023-02-18T14:32:58;97993.97;;;5.84;95.29
53340;BME280;46212;50.258;19.062;2023-02-18T14:35:46;97968.91;;;5.73;96.69
53340;BME280;46212;50.258;19.062;2023-02-18T14:38:32;97944.56;;;5.75;97.21
53340;BME280;46212;50.258;19.062;2023-02-18T14:41:18;97937.44;;;6.03;96.71
53340;BME280;46212;50.258;19.062;2023-02-18T14:44:02;97893.28;;;5.88;96.38
53340;BME280;46212;50.258;19.062;2023-02-18T14:49:29;97901.19;;;5.73;98.88
53340;BME280;46212;50.258;19.062;2023-02-18T14:51:58;97886.84;;;5.57;98.55
53340;BME280;46212;50.258;19.062;2023-02-18T14:54:25;97885.28;;;5.68;99.22
53340;BME280;46212;50.258;19.062;2023-02-18T14:56:55;97882.22;;;5.79;98.87
53340;BME280;46212;50.258;19.062;2023-02-18T14:59:25;97867.72;;;5.78;98.78